sensor_id;sensor_type;location;lat;lon;timestamp;temperature;humidity
66373;SHT30;53168;51.146;17.120;2023-05-07T00:02:24;8.85;80.93
66373;SHT30;53168;51.146;17.120;2023-05-07T00:04:57;8.87;80.90
66373;SHT30;53168;51.146;17.120;2023-05-07T00:07:31;8.87;80.89
66373;SHT30;53168;51.146;17.120;2023-05-07T00:10:05;8.86;80.95
66373;SHT30;53168;51.146;17.120;2023-05-07T00:12:41;8.86;80.81
66373;SHT30;53168;51.146;17.120;2023-05-07T00:15:14;8.86;80.86
66373;SHT30;53168;51.146;17.120;2023-05-07T00:17:47;8.85;80.90
66373;SHT30;53168;51.146;17.120;2023-05-07T00:20:21;8.85;80.88
66373;SHT30;53168;51.146;17.120;2023-05-07T00:22:54;8.86;80.86
66373;SHT30;53168;51.146;17.120;2023-05-07T00:25:27;8.87;80.83
66373;SHT30;53168;51.146;17.120;2023-05-07T00:28:01;8.87;80.88
66373;SHT30;53168;51.146;17.120;2023-05-07T00:30:34;8.86;80.91
66373;SHT30;53168;51.146;17.120;2023-05-07T00:33:07;8.86;80.82
66373;SHT30;53168;51.146;17.120;2023-05-07T00:35:41;8.87;80.92
66373;SHT30;53168;51.146;17.120;2023-05-07T00:38:14;8.87;80.94
66373;SHT30;53168;51.146;17.120;2023-05-07T00:40:47;8.85;80.91
66373;SHT30;53168;51.146;17.120;2023-05-07T00:43:20;8.83;81.04
66373;SHT30;53168;51.146;17.120;2023-05-07T00:45:54;8.82;81.00
66373;SHT30;53168;51.146;17.120;2023-05-07T00:48:27;8.83;80.95
66373;SHT30;53168;51.146;17.120;2023-05-07T00:51:01;8.85;80.93
66373;SHT30;53168;51.146;17.120;2023-05-07T00:53:34;8.85;81.00
66373;SHT30;53168;51.146;17.120;2023-05-07T00:56:08;8.86;81.01
66373;SHT30;53168;51.146;17.120;2023-05-07T00:58:43;8.87;80.99
66373;SHT30;53168;51.146;17.120;2023-05-07T01:01:20;8.88;81.01
66373;SHT30;53168;51.146;17.120;2023-05-07T01:03:54;8.87;81.11
66373;SHT30;53168;51.146;17.120;2023-05-07T01:06:28;8.88;81.00
66373;SHT30;53168;51.146;17.120;2023-05-07T01:09:04;8.86;81.28
66373;SHT30;53168;51.146;17.120;2023-05-07T01:11:38;8.85;81.21
66373;SHT30;53168;51.146;17.120;2023-05-07T01:14:12;8.84;81.29
66373;SHT30;53168;51.146;17.120;2023-05-07T01:16:45;8.81;81.37
66373;SHT30;53168;51.146;17.120;2023-05-07T01:19:20;8.78;81.25
66373;SHT30;53168;51.146;17.120;2023-05-07T01:21:54;8.78;81.23
66373;SHT30;53168;51.146;17.120;2023-05-07T01:24:40;8.79;81.31
66373;SHT30;53168;51.146;17.120;2023-05-07T01:27:14;8.80;81.23
66373;SHT30;53168;51.146;17.120;2023-05-07T01:29:49;8.80;81.27
66373;SHT30;53168;51.146;17.120;2023-05-07T01:32:23;8.80;81.23
66373;SHT30;53168;51.146;17.120;2023-05-07T01:35:12;8.78;81.18
66373;SHT30;53168;51.146;17.120;2023-05-07T01:37:51;8.78;81.21
66373;SHT30;53168;51.146;17.120;2023-05-07T01:40:25;8.74;81.11
66373;SHT30;53168;51.146;17.120;2023-05-07T01:42:59;8.75;81.13
66373;SHT30;53168;51.146;17.120;2023-05-07T01:45:34;8.75;81.17
66373;SHT30;53168;51.146;17.120;2023-05-07T01:48:09;8.75;81.07
66373;SHT30;53168;51.146;17.120;2023-05-07T01:50:44;8.74;81.06
66373;SHT30;53168;51.146;17.120;2023-05-07T01:53:17;8.73;81.16
66373;SHT30;53168;51.146;17.120;2023-05-07T01:55:50;8.72;81.10
66373;SHT30;53168;51.146;17.120;2023-05-07T01:58:24;8.70;81.01
66373;SHT30;53168;51.146;17.120;2023-05-07T02:00:58;8.73;80.94
66373;SHT30;53168;51.146;17.120;2023-05-07T02:03:31;8.72;80.86
66373;SHT30;53168;51.146;17.120;2023-05-07T02:06:08;8.70;80.87
66373;SHT30;53168;51.146;17.120;2023-05-07T02:08:42;8.68;80.83
66373;SHT30;53168;51.146;17.120;2023-05-07T02:11:16;8.67;80.83
66373;SHT30;53168;51.146;17.120;2023-05-07T02:13:50;8.66;80.79
66373;SHT30;53168;51.146;17.120;2023-05-07T02:16:23;8.64;80.74
66373;SHT30;53168;51.146;17.120;2023-05-07T02:18:57;8.63;80.77
66373;SHT30;53168;51.146;17.120;2023-05-07T02:21:30;8.62;80.71
66373;SHT30;53168;51.146;17.120;2023-05-07T02:24:03;8.63;80.69
66373;SHT30;53168;51.146;17.120;2023-05-07T02:26:37;8.62;80.66
66373;SHT30;53168;51.146;17.120;2023-05-07T02:29:11;8.60;80.64
66373;SHT30;53168;51.146;17.120;2023-05-07T02:31:44;8.60;80.62
66373;SHT30;53168;51.146;17.120;2023-05-07T02:34:19;8.60;80.52
66373;SHT30;53168;51.146;17.120;2023-05-07T02:36:53;8.61;80.52
66373;SHT30;53168;51.146;17.120;2023-05-07T02:39:27;8.60;80.50
66373;SHT30;53168;51.146;17.120;2023-05-07T02:42:03;8.61;80.56
66373;SHT30;53168;51.146;17.120;2023-05-07T02:44:38;8.59;80.72
66373;SHT30;53168;51.146;17.120;2023-05-07T02:47:12;8.58;80.73
66373;SHT30;53168;51.146;17.120;2023-05-07T02:49:46;8.58;80.64
66373;SHT30;53168;51.146;17.120;2023-05-07T02:52:20;8.58;80.63
66373;SHT30;53168;51.146;17.120;2023-05-07T02:54:53;8.57;80.49
66373;SHT30;53168;51.146;17.120;2023-05-07T02:57:26;8.55;80.42
66373;SHT30;53168;51.146;17.120;2023-05-07T03:00:09;8.54;80.38
66373;SHT30;53168;51.146;17.120;2023-05-07T03:02:52;8.53;80.29
66373;SHT30;53168;51.146;17.120;2023-05-07T03:05:26;8.49;80.20
66373;SHT30;53168;51.146;17.120;2023-05-07T03:07:59;8.48;80.29
66373;SHT30;53168;51.146;17.120;2023-05-07T03:10:33;8.48;80.35
66373;SHT30;53168;51.146;17.120;2023-05-07T03:13:07;8.46;80.28
66373;SHT30;53168;51.146;17.120;2023-05-07T03:15:40;8.47;80.27
66373;SHT30;53168;51.146;17.120;2023-05-07T03:18:14;8.47;80.23
66373;SHT30;53168;51.146;17.120;2023-05-07T03:20:48;8.46;80.28
66373;SHT30;53168;51.146;17.120;2023-05-07T03:23:21;8.45;80.32
66373;SHT30;53168;51.146;17.120;2023-05-07T03:25:55;8.43;80.32
66373;SHT30;53168;51.146;17.120;2023-05-07T03:28:28;8.42;80.30
66373;SHT30;53168;51.146;17.120;2023-05-07T03:31:03;8.39;80.41
66373;SHT30;53168;51.146;17.120;2023-05-07T03:33:38;8.36;80.42
66373;SHT30;53168;51.146;17.120;2023-05-07T03:36:24;8.37;80.30
66373;SHT30;53168;51.146;17.120;2023-05-07T03:38:58;8.40;80.32
66373;SHT30;53168;51.146;17.120;2023-05-07T03:41:37;8.40;80.19
66373;SHT30;53168;51.146;17.120;2023-05-07T03:44:10;8.39;80.14
66373;SHT30;53168;51.146;17.120;2023-05-07T03:46:44;8.37;80.12
66373;SHT30;53168;51.146;17.120;2023-05-07T03:49:17;8.38;80.11
66373;SHT30;53168;51.146;17.120;2023-05-07T03:51:50;8.42;80.10
66373;SHT30;53168;51.146;17.120;2023-05-07T03:54:24;8.44;80.10
66373;SHT30;53168;51.146;17.120;2023-05-07T03:56:57;8.44;80.07
66373;SHT30;53168;51.146;17.120;2023-05-07T03:59:31;8.44;80.12
66373;SHT30;53168;51.146;17.120;2023-05-07T04:02:04;8.43;80.09
66373;SHT30;53168;51.146;17.120;2023-05-07T04:04:38;8.42;80.30
66373;SHT30;53168;51.146;17.120;2023-05-07T04:07:11;8.39;80.37
66373;SHT30;53168;51.146;17.120;2023-05-07T04:09:45;8.38;80.58
66373;SHT30;53168;51.146;17.120;2023-05-07T04:12:18;8.38;80.66
66373;SHT30;53168;51.146;17.120;2023-05-07T04:14:51;8.38;80.70
66373;SHT30;53168;51.146;17.120;2023-05-07T04:17:25;8.38;80.73
66373;SHT30;53168;51.146;17.120;2023-05-07T04:19:58;8.36;80.70
66373;SHT30;53168;51.146;17.120;2023-05-07T04:22:32;8.36;80.70
66373;SHT30;53168;51.146;17.120;2023-05-07T04:25:07;8.36;80.60
66373;SHT30;53168;51.146;17.120;2023-05-07T04:27:41;8.39;80.51
66373;SHT30;53168;51.146;17.120;2023-05-07T04:30:15;8.42;80.34
66373;SHT30;53168;51.146;17.120;2023-05-07T04:32:49;8.46;80.26
66373;SHT30;53168;51.146;17.120;2023-05-07T04:35:23;8.52;80.20
66373;SHT30;53168;51.146;17.120;2023-05-07T04:37:56;8.59;80.08
66373;SHT30;53168;51.146;17.120;2023-05-07T04:40:30;8.63;79.91
66373;SHT30;53168;51.146;17.120;2023-05-07T04:43:05;8.65;79.64
66373;SHT30;53168;51.146;17.120;2023-05-07T04:45:44;8.80;79.47
66373;SHT30;53168;51.146;17.120;2023-05-07T04:48:18;9.08;79.15
66373;SHT30;53168;51.146;17.120;2023-05-07T04:50:52;9.20;78.82
66373;SHT30;53168;51.146;17.120;2023-05-07T04:53:26;9.21;78.33
66373;SHT30;53168;51.146;17.120;2023-05-07T04:55:59;9.18;78.17
66373;SHT30;53168;51.146;17.120;2023-05-07T04:58:37;9.19;78.14
66373;SHT30;53168;51.146;17.120;2023-05-07T05:01:10;9.18;78.18
66373;SHT30;53168;51.146;17.120;2023-05-07T05:03:43;9.16;78.23
66373;SHT30;53168;51.146;17.120;2023-05-07T05:06:17;9.08;78.08
66373;SHT30;53168;51.146;17.120;2023-05-07T05:08:51;9.05;78.34
66373;SHT30;53168;51.146;17.120;2023-05-07T05:11:25;8.98;78.20
66373;SHT30;53168;51.146;17.120;2023-05-07T05:13:58;8.90;78.33
66373;SHT30;53168;51.146;17.120;2023-05-07T05:16:32;8.83;78.38
66373;SHT30;53168;51.146;17.120;2023-05-07T05:19:05;8.81;78.65
66373;SHT30;53168;51.146;17.120;2023-05-07T05:21:40;8.82;78.63
66373;SHT30;53168;51.146;17.120;2023-05-07T05:24:13;8.80;78.51
66373;SHT30;53168;51.146;17.120;2023-05-07T05:26:47;8.81;78.61
66373;SHT30;53168;51.146;17.120;2023-05-07T05:29:23;8.82;78.54
66373;SHT30;53168;51.146;17.120;2023-05-07T05:31:56;8.83;78.40
66373;SHT30;53168;51.146;17.120;2023-05-07T05:34:31;8.81;77.95
66373;SHT30;53168;51.146;17.120;2023-05-07T05:37:04;8.77;78.11
66373;SHT30;53168;51.146;17.120;2023-05-07T05:39:38;8.74;78.06
66373;SHT30;53168;51.146;17.120;2023-05-07T05:42:11;8.79;78.14
66373;SHT30;53168;51.146;17.120;2023-05-07T05:44:45;8.87;78.20
66373;SHT30;53168;51.146;17.120;2023-05-07T05:47:18;9.00;78.04
66373;SHT30;53168;51.146;17.120;2023-05-07T05:49:52;9.07;77.73
66373;SHT30;53168;51.146;17.120;2023-05-07T05:52:26;9.10;77.55
66373;SHT30;53168;51.146;17.120;2023-05-07T05:55:00;9.12;77.38
66373;SHT30;53168;51.146;17.120;2023-05-07T05:57:36;9.14;77.34
66373;SHT30;53168;51.146;17.120;2023-05-07T06:00:11;9.17;77.10
66373;SHT30;53168;51.146;17.120;2023-05-07T06:02:48;9.16;76.81
66373;SHT30;53168;51.146;17.120;2023-05-07T06:05:23;9.21;76.69
66373;SHT30;53168;51.146;17.120;2023-05-07T06:07:57;9.30;76.54
66373;SHT30;53168;51.146;17.120;2023-05-07T06:10:33;9.31;76.10
66373;SHT30;53168;51.146;17.120;2023-05-07T06:13:08;9.28;75.99
66373;SHT30;53168;51.146;17.120;2023-05-07T06:15:42;9.30;75.98
66373;SHT30;53168;51.146;17.120;2023-05-07T06:18:15;9.33;75.62
66373;SHT30;53168;51.146;17.120;2023-05-07T06:20:48;9.34;75.56
66373;SHT30;53168;51.146;17.120;2023-05-07T06:23:26;9.37;75.84
66373;SHT30;53168;51.146;17.120;2023-05-07T06:26:00;9.38;75.21
66373;SHT30;53168;51.146;17.120;2023-05-07T06:28:37;9.37;75.19
66373;SHT30;53168;51.146;17.120;2023-05-07T06:31:13;9.31;74.90
66373;SHT30;53168;51.146;17.120;2023-05-07T06:34:18;9.19;74.58
66373;SHT30;53168;51.146;17.120;2023-05-07T06:36:52;9.11;74.87
66373;SHT30;53168;51.146;17.120;2023-05-07T06:39:33;9.09;75.02
66373;SHT30;53168;51.146;17.120;2023-05-07T06:42:06;9.07;74.94
66373;SHT30;53168;51.146;17.120;2023-05-07T06:44:42;9.04;74.67
66373;SHT30;53168;51.146;17.120;2023-05-07T06:47:17;9.02;75.00
66373;SHT30;53168;51.146;17.120;2023-05-07T06:49:52;9.11;75.23
66373;SHT30;53168;51.146;17.120;2023-05-07T06:52:28;9.29;75.07
66373;SHT30;53168;51.146;17.120;2023-05-07T06:55:02;9.41;74.72
66373;SHT30;53168;51.146;17.120;2023-05-07T06:57:38;9.45;74.20
66373;SHT30;53168;51.146;17.120;2023-05-07T07:00:13;9.36;73.55
66373;SHT30;53168;51.146;17.120;2023-05-07T08:17:45;10.05;70.21
66373;SHT30;53168;51.146;17.120;2023-05-07T08:20:19;9.94;70.60
66373;SHT30;53168;51.146;17.120;2023-05-07T08:22:53;9.83;70.85
66373;SHT30;53168;51.146;17.120;2023-05-07T08:25:27;9.78;71.27
66373;SHT30;53168;51.146;17.120;2023-05-07T08:28:03;9.73;71.25
66373;SHT30;53168;51.146;17.120;2023-05-07T08:30:39;9.66;71.36
66373;SHT30;53168;51.146;17.120;2023-05-07T08:33:12;9.59;71.49
66373;SHT30;53168;51.146;17.120;2023-05-07T08:35:46;9.54;71.56
66373;SHT30;53168;51.146;17.120;2023-05-07T08:38:19;9.49;71.73
66373;SHT30;53168;51.146;17.120;2023-05-07T08:40:53;9.45;71.92
66373;SHT30;53168;51.146;17.120;2023-05-07T08:43:26;9.43;71.89
66373;SHT30;53168;51.146;17.120;2023-05-07T08:46:03;9.39;71.69
66373;SHT30;53168;51.146;17.120;2023-05-07T08:48:40;9.36;71.72
66373;SHT30;53168;51.146;17.120;2023-05-07T08:51:17;9.31;71.69
66373;SHT30;53168;51.146;17.120;2023-05-07T08:53:53;9.31;71.63
66373;SHT30;53168;51.146;17.120;2023-05-07T08:56:30;9.32;71.45
66373;SHT30;53168;51.146;17.120;2023-05-07T08:59:03;9.35;71.68
66373;SHT30;53168;51.146;17.120;2023-05-07T09:01:37;9.38;71.79
66373;SHT30;53168;51.146;17.120;2023-05-07T09:23:55;9.90;70.95
66373;SHT30;53168;51.146;17.120;2023-05-07T09:26:34;9.87;70.88
66373;SHT30;53168;51.146;17.120;2023-05-07T09:29:09;9.86;70.98
66373;SHT30;53168;51.146;17.120;2023-05-07T09:31:46;9.95;71.09
66373;SHT30;53168;51.146;17.120;2023-05-07T09:34:20;10.01;70.88
66373;SHT30;53168;51.146;17.120;2023-05-07T09:36:54;10.17;70.61
66373;SHT30;53168;51.146;17.120;2023-05-07T09:39:39;10.37;70.22
66373;SHT30;53168;51.146;17.120;2023-05-07T09:42:15;10.66;69.82
66373;SHT30;53168;51.146;17.120;2023-05-07T09:44:57;10.77;69.04
66373;SHT30;53168;51.146;17.120;2023-05-07T09:47:36;10.74;68.95
66373;SHT30;53168;51.146;17.120;2023-05-07T09:50:15;10.79;68.39
66373;SHT30;53168;51.146;17.120;2023-05-07T09:52:51;11.04;68.15
66373;SHT30;53168;51.146;17.120;2023-05-07T09:55:27;11.22;67.12
66373;SHT30;53168;51.146;17.120;2023-05-07T09:58:00;11.36;66.71
66373;SHT30;53168;51.146;17.120;2023-05-07T10:00:36;11.47;66.40
66373;SHT30;53168;51.146;17.120;2023-05-07T10:03:12;11.51;65.89
66373;SHT30;53168;51.146;17.120;2023-05-07T10:05:56;11.61;65.82
66373;SHT30;53168;51.146;17.120;2023-05-07T10:08:33;11.64;65.36
66373;SHT30;53168;51.146;17.120;2023-05-07T10:11:08;11.59;65.44
66373;SHT30;53168;51.146;17.120;2023-05-07T10:13:45;11.59;65.52
66373;SHT30;53168;51.146;17.120;2023-05-07T10:16:20;11.56;65.27
66373;SHT30;53168;51.146;17.120;2023-05-07T10:18:56;11.67;66.02
66373;SHT30;53168;51.146;17.120;2023-05-07T10:21:33;11.78;65.24
66373;SHT30;53168;51.146;17.120;2023-05-07T10:24:10;11.86;65.94
66373;SHT30;53168;51.146;17.120;2023-05-07T10:26:50;11.92;64.93
66373;SHT30;53168;51.146;17.120;2023-05-07T10:29:28;11.83;63.25
66373;SHT30;53168;51.146;17.120;2023-05-07T10:32:13;11.73;64.13
66373;SHT30;53168;51.146;17.120;2023-05-07T10:35:06;11.79;64.36
66373;SHT30;53168;51.146;17.120;2023-05-07T10:37:49;11.85;63.83
66373;SHT30;53168;51.146;17.120;2023-05-07T10:40:25;11.91;64.15
66373;SHT30;53168;51.146;17.120;2023-05-07T10:42:59;11.95;64.00
66373;SHT30;53168;51.146;17.120;2023-05-07T10:45:46;11.99;63.92
66373;SHT30;53168;51.146;17.120;2023-05-07T10:52:14;11.76;64.30
66373;SHT30;53168;51.146;17.120;2023-05-07T10:55:23;11.78;64.34
66373;SHT30;53168;51.146;17.120;2023-05-07T11:01:14;11.48;63.92
66373;SHT30;53168;51.146;17.120;2023-05-07T11:04:30;11.53;64.68
66373;SHT30;53168;51.146;17.120;2023-05-07T11:07:29;11.61;64.52
66373;SHT30;53168;51.146;17.120;2023-05-07T11:10:07;11.66;64.70
66373;SHT30;53168;51.146;17.120;2023-05-07T11:12:59;11.65;64.76
66373;SHT30;53168;51.146;17.120;2023-05-07T11:15:42;11.56;64.77
66373;SHT30;53168;51.146;17.120;2023-05-07T11:18:30;11.45;64.60
66373;SHT30;53168;51.146;17.120;2023-05-07T11:21:35;11.34;64.50
66373;SHT30;53168;51.146;17.120;2023-05-07T11:24:24;11.32;64.41
66373;SHT30;53168;51.146;17.120;2023-05-07T11:27:01;11.45;63.84
66373;SHT30;53168;51.146;17.120;2023-05-07T11:29:35;11.64;63.23
66373;SHT30;53168;51.146;17.120;2023-05-07T11:32:12;11.73;63.13
66373;SHT30;53168;51.146;17.120;2023-05-07T11:34:52;11.73;63.47
66373;SHT30;53168;51.146;17.120;2023-05-07T11:37:27;11.66;63.42
66373;SHT30;53168;51.146;17.120;2023-05-07T11:40:04;11.53;63.16
66373;SHT30;53168;51.146;17.120;2023-05-07T11:42:43;11.46;63.61
66373;SHT30;53168;51.146;17.120;2023-05-07T11:45:22;11.40;63.32
66373;SHT30;53168;51.146;17.120;2023-05-07T11:47:55;11.38;63.48
66373;SHT30;53168;51.146;17.120;2023-05-07T11:50:31;11.43;63.88
66373;SHT30;53168;51.146;17.120;2023-05-07T11:53:08;11.53;63.68
66373;SHT30;53168;51.146;17.120;2023-05-07T11:55:42;11.60;63.45
66373;SHT30;53168;51.146;17.120;2023-05-07T11:58:20;11.63;63.46
66373;SHT30;53168;51.146;17.120;2023-05-07T12:00:54;11.60;63.56
66373;SHT30;53168;51.146;17.120;2023-05-07T12:03:28;11.58;64.03
66373;SHT30;53168;51.146;17.120;2023-05-07T12:06:06;11.61;63.84
66373;SHT30;53168;51.146;17.120;2023-05-07T12:08:40;11.68;63.91
66373;SHT30;53168;51.146;17.120;2023-05-07T12:11:16;11.73;63.42
66373;SHT30;53168;51.146;17.120;2023-05-07T12:13:55;11.71;63.09
66373;SHT30;53168;51.146;17.120;2023-05-07T12:16:29;11.68;62.98
66373;SHT30;53168;51.146;17.120;2023-05-07T12:19:03;11.62;62.57
66373;SHT30;53168;51.146;17.120;2023-05-07T12:21:43;11.61;63.03
66373;SHT30;53168;51.146;17.120;2023-05-07T12:24:17;11.55;62.84
66373;SHT30;53168;51.146;17.120;2023-05-07T12:26:51;11.48;63.10
66373;SHT30;53168;51.146;17.120;2023-05-07T12:29:24;11.40;63.18
66373;SHT30;53168;51.146;17.120;2023-05-07T12:31:59;11.37;63.05
66373;SHT30;53168;51.146;17.120;2023-05-07T12:34:35;11.33;62.72
66373;SHT30;53168;51.146;17.120;2023-05-07T12:37:13;11.33;62.83
66373;SHT30;53168;51.146;17.120;2023-05-07T12:39:48;11.33;63.04
66373;SHT30;53168;51.146;17.120;2023-05-07T12:42:36;11.38;62.95
66373;SHT30;53168;51.146;17.120;2023-05-07T12:45:15;11.39;63.09
66373;SHT30;53168;51.146;17.120;2023-05-07T12:48:21;11.38;62.94
66373;SHT30;53168;51.146;17.120;2023-05-07T12:50:56;11.29;63.03
66373;SHT30;53168;51.146;17.120;2023-05-07T12:53:30;11.21;63.32
66373;SHT30;53168;51.146;17.120;2023-05-07T12:56:09;11.14;63.33
66373;SHT30;53168;51.146;17.120;2023-05-07T12:58:45;11.07;63.71
66373;SHT30;53168;51.146;17.120;2023-05-07T13:01:21;11.11;63.74
66373;SHT30;53168;51.146;17.120;2023-05-07T13:04:02;11.15;63.48
66373;SHT30;53168;51.146;17.120;2023-05-07T13:06:36;11.19;63.27
66373;SHT30;53168;51.146;17.120;2023-05-07T13:09:09;11.26;63.67
66373;SHT30;53168;51.146;17.120;2023-05-07T13:11:42;11.30;63.73
66373;SHT30;53168;51.146;17.120;2023-05-07T13:14:16;11.25;63.86
66373;SHT30;53168;51.146;17.120;2023-05-07T13:16:50;11.14;63.78
66373;SHT30;53168;51.146;17.120;2023-05-07T13:19:23;11.04;64.07
66373;SHT30;53168;51.146;17.120;2023-05-07T13:21:59;11.04;64.02
66373;SHT30;53168;51.146;17.120;2023-05-07T13:24:32;11.10;63.67
66373;SHT30;53168;51.146;17.120;2023-05-07T13:27:05;11.16;63.38
66373;SHT30;53168;51.146;17.120;2023-05-07T13:29:38;11.19;63.14
66373;SHT30;53168;51.146;17.120;2023-05-07T13:32:12;11.25;63.08
66373;SHT30;53168;51.146;17.120;2023-05-07T13:34:45;11.17;62.84
66373;SHT30;53168;51.146;17.120;2023-05-07T13:37:18;11.11;63.10
66373;SHT30;53168;51.146;17.120;2023-05-07T13:39:51;11.06;63.40
66373;SHT30;53168;51.146;17.120;2023-05-07T13:42:25;11.07;63.55
66373;SHT30;53168;51.146;17.120;2023-05-07T13:44:58;11.10;63.51
66373;SHT30;53168;51.146;17.120;2023-05-07T13:47:33;11.06;62.62
66373;SHT30;53168;51.146;17.120;2023-05-07T13:50:11;11.01;62.50
66373;SHT30;53168;51.146;17.120;2023-05-07T13:52:44;10.98;62.54
66373;SHT30;53168;51.146;17.120;2023-05-07T13:55:20;10.93;62.77
66373;SHT30;53168;51.146;17.120;2023-05-07T13:57:57;10.86;63.06
66373;SHT30;53168;51.146;17.120;2023-05-07T14:00:35;10.88;63.52
66373;SHT30;53168;51.146;17.120;2023-05-07T14:03:08;10.84;63.66
66373;SHT30;53168;51.146;17.120;2023-05-07T14:05:42;10.82;63.62
66373;SHT30;53168;51.146;17.120;2023-05-07T14:08:18;10.78;63.53
66373;SHT30;53168;51.146;17.120;2023-05-07T14:10:52;10.70;63.55
66373;SHT30;53168;51.146;17.120;2023-05-07T14:13:25;10.64;63.79
66373;SHT30;53168;51.146;17.120;2023-05-07T14:15:59;10.61;64.04
66373;SHT30;53168;51.146;17.120;2023-05-07T14:18:34;10.58;64.12
66373;SHT30;53168;51.146;17.120;2023-05-07T14:21:07;10.61;64.15
66373;SHT30;53168;51.146;17.120;2023-05-07T14:23:41;10.66;64.16
66373;SHT30;53168;51.146;17.120;2023-05-07T14:26:14;10.65;64.21
66373;SHT30;53168;51.146;17.120;2023-05-07T14:28:47;10.69;64.32
66373;SHT30;53168;51.146;17.120;2023-05-07T14:31:21;10.79;63.97
66373;SHT30;53168;51.146;17.120;2023-05-07T14:33:54;10.86;63.64
66373;SHT30;53168;51.146;17.120;2023-05-07T14:36:28;10.92;63.53
66373;SHT30;53168;51.146;17.120;2023-05-07T14:39:01;10.95;63.20
66373;SHT30;53168;51.146;17.120;2023-05-07T14:41:34;10.97;63.24
66373;SHT30;53168;51.146;17.120;2023-05-07T14:44:08;10.97;63.26
66373;SHT30;53168;51.146;17.120;2023-05-07T14:46:41;10.96;63.48
66373;SHT30;53168;51.146;17.120;2023-05-07T14:49:15;11.02;63.67
66373;SHT30;53168;51.146;17.120;2023-05-07T14:51:48;11.06;63.59
66373;SHT30;53168;51.146;17.120;2023-05-07T14:54:21;11.05;63.07
66373;SHT30;53168;51.146;17.120;2023-05-07T14:56:55;11.05;63.32
66373;SHT30;53168;51.146;17.120;2023-05-07T14:59:28;11.03;63.19
66373;SHT30;53168;51.146;17.120;2023-05-07T15:02:02;10.99;63.21
66373;SHT30;53168;51.146;17.120;2023-05-07T15:04:38;10.95;63.32
66373;SHT30;53168;51.146;17.120;2023-05-07T15:07:15;10.94;63.53
66373;SHT30;53168;51.146;17.120;2023-05-07T15:09:48;10.97;63.40
66373;SHT30;53168;51.146;17.120;2023-05-07T15:12:21;10.97;63.28
66373;SHT30;53168;51.146;17.120;2023-05-07T15:14:54;11.02;63.37
66373;SHT30;53168;51.146;17.120;2023-05-07T15:17:27;11.05;63.17
66373;SHT30;53168;51.146;17.120;2023-05-07T15:20:01;11.02;63.08
66373;SHT30;53168;51.146;17.120;2023-05-07T15:22:36;11.00;63.17
66373;SHT30;53168;51.146;17.120;2023-05-07T15:25:10;11.02;63.49
66373;SHT30;53168;51.146;17.120;2023-05-07T15:27:45;11.05;63.43
66373;SHT30;53168;51.146;17.120;2023-05-07T15:30:19;11.03;63.22
66373;SHT30;53168;51.146;17.120;2023-05-07T15:32:52;10.99;63.04
66373;SHT30;53168;51.146;17.120;2023-05-07T15:35:26;10.93;63.22
66373;SHT30;53168;51.146;17.120;2023-05-07T15:37:59;10.95;63.46
66373;SHT30;53168;51.146;17.120;2023-05-07T15:40:32;10.88;63.27
66373;SHT30;53168;51.146;17.120;2023-05-07T15:43:11;10.79;63.64
66373;SHT30;53168;51.146;17.120;2023-05-07T15:45:44;10.71;63.94
66373;SHT30;53168;51.146;17.120;2023-05-07T15:48:17;10.67;64.06
66373;SHT30;53168;51.146;17.120;2023-05-07T15:50:51;10.65;64.13
66373;SHT30;53168;51.146;17.120;2023-05-07T15:53:24;10.63;64.38
66373;SHT30;53168;51.146;17.120;2023-05-07T15:55:57;10.63;64.45
66373;SHT30;53168;51.146;17.120;2023-05-07T15:58:30;10.62;64.52
66373;SHT30;53168;51.146;17.120;2023-05-07T16:01:05;10.64;64.55
66373;SHT30;53168;51.146;17.120;2023-05-07T16:03:38;10.66;64.61
66373;SHT30;53168;51.146;17.120;2023-05-07T16:06:12;10.70;64.65
66373;SHT30;53168;51.146;17.120;2023-05-07T16:08:46;10.74;64.81
66373;SHT30;53168;51.146;17.120;2023-05-07T16:11:19;10.80;64.84
66373;SHT30;53168;51.146;17.120;2023-05-07T16:13:52;10.82;64.82
66373;SHT30;53168;51.146;17.120;2023-05-07T16:16:27;10.81;64.73
66373;SHT30;53168;51.146;17.120;2023-05-07T16:19:03;10.74;64.46
66373;SHT30;53168;51.146;17.120;2023-05-07T16:21:37;10.67;64.40
66373;SHT30;53168;51.146;17.120;2023-05-07T16:24:11;10.60;64.71
66373;SHT30;53168;51.146;17.120;2023-05-07T16:26:44;10.57;64.84
66373;SHT30;53168;51.146;17.120;2023-05-07T16:29:17;10.55;64.86
66373;SHT30;53168;51.146;17.120;2023-05-07T16:31:51;10.53;64.89
66373;SHT30;53168;51.146;17.120;2023-05-07T16:34:26;10.54;64.99
66373;SHT30;53168;51.146;17.120;2023-05-07T16:37:00;10.55;65.04
66373;SHT30;53168;51.146;17.120;2023-05-07T16:39:35;10.52;65.10
66373;SHT30;53168;51.146;17.120;2023-05-07T16:42:08;10.49;65.16
66373;SHT30;53168;51.146;17.120;2023-05-07T16:44:42;10.47;65.28
66373;SHT30;53168;51.146;17.120;2023-05-07T16:47:15;10.44;65.39
66373;SHT30;53168;51.146;17.120;2023-05-07T16:49:48;10.43;65.46
66373;SHT30;53168;51.146;17.120;2023-05-07T16:52:21;10.42;65.32
66373;SHT30;53168;51.146;17.120;2023-05-07T16:54:55;10.41;65.37
66373;SHT30;53168;51.146;17.120;2023-05-07T16:57:29;10.39;65.51
66373;SHT30;53168;51.146;17.120;2023-05-07T17:00:03;10.40;65.71
66373;SHT30;53168;51.146;17.120;2023-05-07T17:02:39;10.42;65.73
66373;SHT30;53168;51.146;17.120;2023-05-07T17:05:13;10.38;65.61
66373;SHT30;53168;51.146;17.120;2023-05-07T17:07:47;10.35;65.62
66373;SHT30;53168;51.146;17.120;2023-05-07T17:10:21;10.31;65.60
66373;SHT30;53168;51.146;17.120;2023-05-07T17:12:54;10.30;65.56
66373;SHT30;53168;51.146;17.120;2023-05-07T17:15:28;10.27;65.55
66373;SHT30;53168;51.146;17.120;2023-05-07T17:18:01;10.27;65.64
66373;SHT30;53168;51.146;17.120;2023-05-07T17:20:34;10.27;65.54
66373;SHT30;53168;51.146;17.120;2023-05-07T17:23:08;10.25;65.63
66373;SHT30;53168;51.146;17.120;2023-05-07T17:25:43;10.24;65.70
66373;SHT30;53168;51.146;17.120;2023-05-07T17:28:16;10.19;65.74
66373;SHT30;53168;51.146;17.120;2023-05-07T17:30:49;10.16;65.81
66373;SHT30;53168;51.146;17.120;2023-05-07T17:33:23;10.12;65.80
66373;SHT30;53168;51.146;17.120;2023-05-07T17:35:56;10.09;65.85
66373;SHT30;53168;51.146;17.120;2023-05-07T17:38:31;10.05;65.89
66373;SHT30;53168;51.146;17.120;2023-05-07T17:41:04;10.01;66.12
66373;SHT30;53168;51.146;17.120;2023-05-07T17:43:37;9.99;66.12
66373;SHT30;53168;51.146;17.120;2023-05-07T17:46:11;9.99;66.14
66373;SHT30;53168;51.146;17.120;2023-05-07T17:48:44;9.99;66.11
66373;SHT30;53168;51.146;17.120;2023-05-07T17:51:17;9.97;66.13
66373;SHT30;53168;51.146;17.120;2023-05-07T17:53:50;9.94;66.38
66373;SHT30;53168;51.146;17.120;2023-05-07T17:56:24;9.91;66.48